sensor_id;sensor_type;location;lat;lon;timestamp;P1;durP1;ratioP1;P2;durP2;ratioP2
41219;SDS011;26951;47.338;9.196;2024-02-16T00:01:32;4.68;;;3.50;;
41219;SDS011;26951;47.338;9.196;2024-02-16T00:04:17;4.72;;;3.08;;
41219;SDS011;26951;47.338;9.196;2024-02-16T00:07:01;4.97;;;3.30;;
41219;SDS011;26951;47.338;9.196;2024-02-16T00:09:45;4.13;;;3.30;;
41219;SDS011;26951;47.338;9.196;2024-02-16T00:12:29;4.28;;;3.45;;
41219;SDS011;26951;47.338;9.196;2024-02-16T00:15:13;5.95;;;3.50;;
41219;SDS011;26951;47.338;9.196;2024-02-16T00:17:57;3.78;;;2.92;;
41219;SDS011;26951;47.338;9.196;2024-02-16T00:20:41;4.95;;;3.13;;
41219;SDS011;26951;47.338;9.196;2024-02-16T00:23:25;5.03;;;3.17;;
41219;SDS011;26951;47.338;9.196;2024-02-16T00:26:09;5.28;;;2.97;;
41219;SDS011;26951;47.338;9.196;2024-02-16T00:28:53;3.13;;;2.40;;
41219;SDS011;26951;47.338;9.196;2024-02-16T00:31:38;4.20;;;3.22;;
41219;SDS011;26951;47.338;9.196;2024-02-16T00:34:23;4.85;;;3.03;;
41219;SDS011;26951;47.338;9.196;2024-02-16T00:37:07;3.20;;;2.75;;
41219;SDS011;26951;47.338;9.196;2024-02-16T00:39:55;3.50;;;2.50;;
41219;SDS011;26951;47.338;9.196;2024-02-16T00:42:39;3.53;;;2.88;;
41219;SDS011;26951;47.338;9.196;2024-02-16T00:45:24;2.95;;;2.60;;
41219;SDS011;26951;47.338;9.196;2024-02-16T00:48:08;5.18;;;2.88;;
41219;SDS011;26951;47.338;9.196;2024-02-16T00:50:52;3.90;;;3.00;;
41219;SDS011;26951;47.338;9.196;2024-02-16T00:53:36;3.90;;;3.05;;
41219;SDS011;26951;47.338;9.196;2024-02-16T00:56:21;3.10;;;2.47;;
41219;SDS011;26951;47.338;9.196;2024-02-16T00:59:06;4.43;;;2.40;;
41219;SDS011;26951;47.338;9.196;2024-02-16T01:01:52;2.80;;;2.40;;
41219;SDS011;26951;47.338;9.196;2024-02-16T01:04:36;2.65;;;2.25;;
41219;SDS011;26951;47.338;9.196;2024-02-16T01:07:20;4.63;;;2.67;;
41219;SDS011;26951;47.338;9.196;2024-02-16T01:10:05;3.20;;;2.20;;
41219;SDS011;26951;47.338;9.196;2024-02-16T01:12:49;3.20;;;2.17;;
41219;SDS011;26951;47.338;9.196;2024-02-16T01:15:35;4.07;;;2.33;;
41219;SDS011;26951;47.338;9.196;2024-02-16T01:18:25;3.55;;;2.67;;
41219;SDS011;26951;47.338;9.196;2024-02-16T01:21:11;4.78;;;2.70;;
41219;SDS011;26951;47.338;9.196;2024-02-16T01:23:55;2.95;;;2.13;;
41219;SDS011;26951;47.338;9.196;2024-02-16T01:26:42;3.55;;;2.72;;
41219;SDS011;26951;47.338;9.196;2024-02-16T01:29:26;2.35;;;2.05;;
41219;SDS011;26951;47.338;9.196;2024-02-16T01:32:10;4.45;;;2.08;;
41219;SDS011;26951;47.338;9.196;2024-02-16T01:34:55;2.83;;;2.03;;
41219;SDS011;26951;47.338;9.196;2024-02-16T01:37:39;4.18;;;2.55;;
41219;SDS011;26951;47.338;9.196;2024-02-16T01:40:24;4.68;;;2.10;;
41219;SDS011;26951;47.338;9.196;2024-02-16T01:45:54;3.05;;;2.47;;
41219;SDS011;26951;47.338;9.196;2024-02-16T01:48:38;2.70;;;2.08;;
41219;SDS011;26951;47.338;9.196;2024-02-16T01:51:23;3.45;;;2.20;;
41219;SDS011;26951;47.338;9.196;2024-02-16T01:54:09;4.45;;;2.85;;
41219;SDS011;26951;47.338;9.196;2024-02-16T01:56:53;2.00;;;1.73;;
41219;SDS011;26951;47.338;9.196;2024-02-16T01:59:38;3.40;;;1.88;;
41219;SDS011;26951;47.338;9.196;2024-02-16T02:04:51;3.00;;;2.08;;
41219;SDS011;26951;47.338;9.196;2024-02-16T02:07:35;2.75;;;2.10;;
41219;SDS011;26951;47.338;9.196;2024-02-16T02:10:20;2.95;;;2.03;;
41219;SDS011;26951;47.338;9.196;2024-02-16T02:13:04;2.63;;;1.92;;
41219;SDS011;26951;47.338;9.196;2024-02-16T02:15:48;2.58;;;1.67;;
41219;SDS011;26951;47.338;9.196;2024-02-16T02:18:32;2.42;;;1.90;;
41219;SDS011;26951;47.338;9.196;2024-02-16T02:21:16;2.58;;;1.70;;
41219;SDS011;26951;47.338;9.196;2024-02-16T02:24:01;2.45;;;1.83;;
41219;SDS011;26951;47.338;9.196;2024-02-16T02:26:45;2.45;;;1.83;;
41219;SDS011;26951;47.338;9.196;2024-02-16T02:29:29;3.60;;;1.77;;
41219;SDS011;26951;47.338;9.196;2024-02-16T02:32:13;2.08;;;1.77;;
41219;SDS011;26951;47.338;9.196;2024-02-16T02:34:58;2.67;;;2.10;;
41219;SDS011;26951;47.338;9.196;2024-02-16T02:37:42;2.20;;;1.60;;
41219;SDS011;26951;47.338;9.196;2024-02-16T02:40:26;1.65;;;1.55;;
41219;SDS011;26951;47.338;9.196;2024-02-16T02:43:10;2.53;;;2.08;;
41219;SDS011;26951;47.338;9.196;2024-02-16T02:45:54;1.83;;;1.65;;
41219;SDS011;26951;47.338;9.196;2024-02-16T02:48:38;2.03;;;1.48;;
41219;SDS011;26951;47.338;9.196;2024-02-16T02:51:22;2.55;;;1.60;;
41219;SDS011;26951;47.338;9.196;2024-02-16T02:54:07;2.75;;;1.45;;
41219;SDS011;26951;47.338;9.196;2024-02-16T02:56:51;2.92;;;1.67;;
41219;SDS011;26951;47.338;9.196;2024-02-16T02:59:35;2.03;;;1.60;;
41219;SDS011;26951;47.338;9.196;2024-02-16T03:02:19;3.08;;;1.90;;
41219;SDS011;26951;47.338;9.196;2024-02-16T03:05:04;1.75;;;1.65;;
41219;SDS011;26951;47.338;9.196;2024-02-16T03:07:49;3.25;;;1.50;;
41219;SDS011;26951;47.338;9.196;2024-02-16T03:10:33;2.00;;;1.63;;
41219;SDS011;26951;47.338;9.196;2024-02-16T03:13:18;2.10;;;1.85;;
41219;SDS011;26951;47.338;9.196;2024-02-16T03:16:02;2.10;;;1.63;;
41219;SDS011;26951;47.338;9.196;2024-02-16T03:18:47;2.22;;;1.80;;
41219;SDS011;26951;47.338;9.196;2024-02-16T03:21:31;2.15;;;1.60;;
41219;SDS011;26951;47.338;9.196;2024-02-16T03:24:16;7.88;;;1.80;;
41219;SDS011;26951;47.338;9.196;2024-02-16T03:27:00;2.25;;;1.52;;
41219;SDS011;26951;47.338;9.196;2024-02-16T03:29:44;1.70;;;1.60;;
41219;SDS011;26951;47.338;9.196;2024-02-16T03:32:28;1.40;;;1.30;;
41219;SDS011;26951;47.338;9.196;2024-02-16T03:35:12;2.90;;;1.52;;
41219;SDS011;26951;47.338;9.196;2024-02-16T03:37:57;1.42;;;1.23;;
41219;SDS011;26951;47.338;9.196;2024-02-16T03:40:41;1.70;;;1.60;;
41219;SDS011;26951;47.338;9.196;2024-02-16T03:43:25;2.22;;;1.73;;
41219;SDS011;26951;47.338;9.196;2024-02-16T03:46:10;2.38;;;1.75;;
41219;SDS011;26951;47.338;9.196;2024-02-16T03:48:54;1.67;;;1.30;;
41219;SDS011;26951;47.338;9.196;2024-02-16T03:51:38;2.60;;;1.50;;
41219;SDS011;26951;47.338;9.196;2024-02-16T03:54:22;2.25;;;1.30;;
41219;SDS011;26951;47.338;9.196;2024-02-16T03:57:07;2.83;;;1.70;;
41219;SDS011;26951;47.338;9.196;2024-02-16T03:59:52;1.70;;;1.38;;
41219;SDS011;26951;47.338;9.196;2024-02-16T04:02:36;2.67;;;1.50;;
41219;SDS011;26951;47.338;9.196;2024-02-16T04:05:20;2.58;;;1.63;;
41219;SDS011;26951;47.338;9.196;2024-02-16T04:08:05;2.65;;;2.10;;
41219;SDS011;26951;47.338;9.196;2024-02-16T04:10:50;2.35;;;2.03;;
41219;SDS011;26951;47.338;9.196;2024-02-16T04:13:34;2.28;;;1.63;;
41219;SDS011;26951;47.338;9.196;2024-02-16T04:16:18;2.65;;;1.83;;
41219;SDS011;26951;47.338;9.196;2024-02-16T04:19:05;2.85;;;1.88;;
41219;SDS011;26951;47.338;9.196;2024-02-16T04:21:50;2.85;;;1.90;;
41219;SDS011;26951;47.338;9.196;2024-02-16T04:24:35;3.90;;;2.15;;
41219;SDS011;26951;47.338;9.196;2024-02-16T04:27:19;2.30;;;1.70;;
41219;SDS011;26951;47.338;9.196;2024-02-16T04:30:03;3.45;;;2.55;;
41219;SDS011;26951;47.338;9.196;2024-02-16T04:32:48;2.80;;;2.07;;
41219;SDS011;26951;47.338;9.196;2024-02-16T04:35:32;2.80;;;2.30;;
41219;SDS011;26951;47.338;9.196;2024-02-16T04:38:17;2.92;;;2.45;;
41219;SDS011;26951;47.338;9.196;2024-02-16T04:41:04;3.88;;;2.30;;
41219;SDS011;26951;47.338;9.196;2024-02-16T04:43:48;3.47;;;2.20;;
41219;SDS011;26951;47.338;9.196;2024-02-16T04:46:33;4.60;;;2.10;;
41219;SDS011;26951;47.338;9.196;2024-02-16T04:49:17;2.45;;;2.15;;
41219;SDS011;26951;47.338;9.196;2024-02-16T04:52:01;2.67;;;2.05;;
41219;SDS011;26951;47.338;9.196;2024-02-16T04:54:46;4.75;;;2.78;;
41219;SDS011;26951;47.338;9.196;2024-02-16T04:57:30;2.70;;;2.20;;
41219;SDS011;26951;47.338;9.196;2024-02-16T05:00:14;3.20;;;2.22;;
41219;SDS011;26951;47.338;9.196;2024-02-16T05:02:59;2.90;;;2.30;;
41219;SDS011;26951;47.338;9.196;2024-02-16T05:05:43;4.78;;;2.30;;
41219;SDS011;26951;47.338;9.196;2024-02-16T05:08:30;2.40;;;2.20;;
41219;SDS011;26951;47.338;9.196;2024-02-16T05:11:14;2.97;;;2.60;;
41219;SDS011;26951;47.338;9.196;2024-02-16T05:13:58;3.10;;;1.98;;
41219;SDS011;26951;47.338;9.196;2024-02-16T05:16:45;3.22;;;2.20;;
41219;SDS011;26951;47.338;9.196;2024-02-16T05:19:33;3.80;;;1.90;;
41219;SDS011;26951;47.338;9.196;2024-02-16T05:22:18;2.20;;;2.00;;
41219;SDS011;26951;47.338;9.196;2024-02-16T05:25:02;3.65;;;2.00;;
41219;SDS011;26951;47.338;9.196;2024-02-16T05:27:46;4.63;;;2.97;;
41219;SDS011;26951;47.338;9.196;2024-02-16T05:30:33;2.40;;;1.95;;
41219;SDS011;26951;47.338;9.196;2024-02-16T05:33:18;3.97;;;2.20;;
41219;SDS011;26951;47.338;9.196;2024-02-16T05:36:01;2.75;;;1.98;;
41219;SDS011;26951;47.338;9.196;2024-02-16T05:38:47;3.20;;;1.95;;
41219;SDS011;26951;47.338;9.196;2024-02-16T05:41:31;2.75;;;2.28;;
41219;SDS011;26951;47.338;9.196;2024-02-16T05:44:15;3.17;;;1.90;;
41219;SDS011;26951;47.338;9.196;2024-02-16T05:46:59;5.15;;;1.98;;
41219;SDS011;26951;47.338;9.196;2024-02-16T05:49:45;2.33;;;1.70;;
41219;SDS011;26951;47.338;9.196;2024-02-16T05:52:29;2.28;;;1.83;;
41219;SDS011;26951;47.338;9.196;2024-02-16T05:55:14;2.45;;;2.00;;
41219;SDS011;26951;47.338;9.196;2024-02-16T05:57:58;3.10;;;1.90;;
41219;SDS011;26951;47.338;9.196;2024-02-16T06:00:43;3.55;;;1.95;;
41219;SDS011;26951;47.338;9.196;2024-02-16T06:03:27;3.03;;;1.80;;
41219;SDS011;26951;47.338;9.196;2024-02-16T06:06:11;1.55;;;1.30;;
41219;SDS011;26951;47.338;9.196;2024-02-16T06:08:55;4.22;;;1.30;;
41219;SDS011;26951;47.338;9.196;2024-02-16T06:11:39;2.72;;;1.70;;
41219;SDS011;26951;47.338;9.196;2024-02-16T06:14:23;1.80;;;1.30;;
41219;SDS011;26951;47.338;9.196;2024-02-16T06:17:08;2.73;;;1.60;;
41219;SDS011;26951;47.338;9.196;2024-02-16T06:19:52;3.60;;;1.90;;
41219;SDS011;26951;47.338;9.196;2024-02-16T06:22:36;2.42;;;1.80;;
41219;SDS011;26951;47.338;9.196;2024-02-16T06:25:21;2.30;;;1.58;;
41219;SDS011;26951;47.338;9.196;2024-02-16T06:28:05;3.20;;;1.38;;
41219;SDS011;26951;47.338;9.196;2024-02-16T06:30:50;3.33;;;2.05;;
41219;SDS011;26951;47.338;9.196;2024-02-16T06:33:34;1.85;;;1.48;;
41219;SDS011;26951;47.338;9.196;2024-02-16T06:36:18;2.08;;;1.50;;
41219;SDS011;26951;47.338;9.196;2024-02-16T06:39:02;2.20;;;1.60;;
41219;SDS011;26951;47.338;9.196;2024-02-16T06:41:47;2.70;;;1.70;;
41219;SDS011;26951;47.338;9.196;2024-02-16T06:44:31;2.53;;;2.03;;
41219;SDS011;26951;47.338;9.196;2024-02-16T06:47:15;2.58;;;1.70;;
41219;SDS011;26951;47.338;9.196;2024-02-16T06:49:59;2.20;;;1.30;;
41219;SDS011;26951;47.338;9.196;2024-02-16T06:52:43;2.42;;;1.35;;
41219;SDS011;26951;47.338;9.196;2024-02-16T06:55:27;1.42;;;1.33;;
41219;SDS011;26951;47.338;9.196;2024-02-16T06:58:11;1.80;;;1.10;;
41219;SDS011;26951;47.338;9.196;2024-02-16T07:00:55;3.10;;;1.80;;
41219;SDS011;26951;47.338;9.196;2024-02-16T07:03:43;2.88;;;1.60;;
41219;SDS011;26951;47.338;9.196;2024-02-16T07:06:27;3.80;;;1.30;;
41219;SDS011;26951;47.338;9.196;2024-02-16T07:09:12;2.33;;;1.85;;
41219;SDS011;26951;47.338;9.196;2024-02-16T07:11:58;3.17;;;1.50;;
41219;SDS011;26951;47.338;9.196;2024-02-16T07:14:42;2.47;;;1.77;;
41219;SDS011;26951;47.338;9.196;2024-02-16T07:17:29;3.30;;;1.60;;
41219;SDS011;26951;47.338;9.196;2024-02-16T07:20:13;2.78;;;1.80;;
41219;SDS011;26951;47.338;9.196;2024-02-16T07:22:58;1.60;;;1.33;;
41219;SDS011;26951;47.338;9.196;2024-02-16T07:25:43;2.90;;;1.50;;
41219;SDS011;26951;47.338;9.196;2024-02-16T07:31:12;2.22;;;1.67;;
41219;SDS011;26951;47.338;9.196;2024-02-16T07:33:58;2.50;;;1.52;;
41219;SDS011;26951;47.338;9.196;2024-02-16T07:36:42;3.13;;;2.13;;
41219;SDS011;26951;47.338;9.196;2024-02-16T07:39:26;2.20;;;1.80;;
41219;SDS011;26951;47.338;9.196;2024-02-16T07:42:10;2.55;;;1.63;;
41219;SDS011;26951;47.338;9.196;2024-02-16T07:44:56;4.50;;;1.83;;
41219;SDS011;26951;47.338;9.196;2024-02-16T07:47:40;3.58;;;1.52;;
41219;SDS011;26951;47.338;9.196;2024-02-16T07:50:25;2.45;;;1.42;;
41219;SDS011;26951;47.338;9.196;2024-02-16T07:53:09;2.00;;;1.25;;
41219;SDS011;26951;47.338;9.196;2024-02-16T07:55:54;1.85;;;1.70;;
41219;SDS011;26951;47.338;9.196;2024-02-16T07:58:40;2.00;;;1.80;;
41219;SDS011;26951;47.338;9.196;2024-02-16T08:01:26;3.13;;;1.70;;
41219;SDS011;26951;47.338;9.196;2024-02-16T08:04:10;2.50;;;1.60;;
41219;SDS011;26951;47.338;9.196;2024-02-16T08:06:55;1.75;;;1.30;;
41219;SDS011;26951;47.338;9.196;2024-02-16T08:09:39;1.42;;;1.30;;
41219;SDS011;26951;47.338;9.196;2024-02-16T08:12:27;2.63;;;1.70;;
41219;SDS011;26951;47.338;9.196;2024-02-16T08:15:11;3.38;;;1.60;;
41219;SDS011;26951;47.338;9.196;2024-02-16T08:17:56;4.20;;;1.70;;
41219;SDS011;26951;47.338;9.196;2024-02-16T08:20:40;2.13;;;1.58;;
41219;SDS011;26951;47.338;9.196;2024-02-16T08:23:24;2.22;;;1.33;;
41219;SDS011;26951;47.338;9.196;2024-02-16T08:26:08;3.53;;;1.25;;
41219;SDS011;26951;47.338;9.196;2024-02-16T08:28:52;3.75;;;1.38;;
41219;SDS011;26951;47.338;9.196;2024-02-16T08:31:36;2.33;;;1.38;;
41219;SDS011;26951;47.338;9.196;2024-02-16T08:34:20;2.38;;;1.33;;
41219;SDS011;26951;47.338;9.196;2024-02-16T08:37:05;1.35;;;1.25;;
41219;SDS011;26951;47.338;9.196;2024-02-16T08:39:49;2.55;;;1.20;;
41219;SDS011;26951;47.338;9.196;2024-02-16T08:42:33;1.63;;;1.35;;
41219;SDS011;26951;47.338;9.196;2024-02-16T08:45:18;2.13;;;1.30;;
41219;SDS011;26951;47.338;9.196;2024-02-16T08:48:02;1.55;;;1.40;;
41219;SDS011;26951;47.338;9.196;2024-02-16T08:50:47;1.33;;;1.23;;
41219;SDS011;26951;47.338;9.196;2024-02-16T08:53:31;3.10;;;1.50;;
41219;SDS011;26951;47.338;9.196;2024-02-16T08:56:15;1.50;;;1.33;;
41219;SDS011;26951;47.338;9.196;2024-02-16T08:58:59;1.52;;;1.23;;
41219;SDS011;26951;47.338;9.196;2024-02-16T09:01:43;1.35;;;1.23;;
41219;SDS011;26951;47.338;9.196;2024-02-16T09:04:27;2.95;;;1.45;;
41219;SDS011;26951;47.338;9.196;2024-02-16T09:07:12;2.10;;;1.55;;
41219;SDS011;26951;47.338;9.196;2024-02-16T09:09:56;2.00;;;1.15;;
41219;SDS011;26951;47.338;9.196;2024-02-16T09:12:40;2.75;;;1.20;;
41219;SDS011;26951;47.338;9.196;2024-02-16T09:15:24;3.83;;;1.40;;
41219;SDS011;26951;47.338;9.196;2024-02-16T09:18:08;4.95;;;1.38;;
41219;SDS011;26951;47.338;9.196;2024-02-16T09:20:52;2.53;;;1.17;;
41219;SDS011;26951;47.338;9.196;2024-02-16T09:23:37;2.17;;;1.40;;
41219;SDS011;26951;47.338;9.196;2024-02-16T09:26:21;3.22;;;1.75;;
41219;SDS011;26951;47.338;9.196;2024-02-16T09:29:06;2.22;;;1.13;;
41219;SDS011;26951;47.338;9.196;2024-02-16T09:31:50;1.83;;;1.05;;
41219;SDS011;26951;47.338;9.196;2024-02-16T09:34:35;1.88;;;1.27;;
41219;SDS011;26951;47.338;9.196;2024-02-16T09:37:19;1.52;;;1.00;;
41219;SDS011;26951;47.338;9.196;2024-02-16T09:40:04;1.98;;;1.05;;
41219;SDS011;26951;47.338;9.196;2024-02-16T09:42:49;2.95;;;1.02;;
41219;SDS011;26951;47.338;9.196;2024-02-16T09:45:34;2.58;;;0.98;;
41219;SDS011;26951;47.338;9.196;2024-02-16T09:48:18;2.42;;;1.17;;
41219;SDS011;26951;47.338;9.196;2024-02-16T09:51:02;1.45;;;1.00;;
41219;SDS011;26951;47.338;9.196;2024-02-16T09:53:49;1.20;;;1.03;;
41219;SDS011;26951;47.338;9.196;2024-02-16T09:56:39;1.55;;;1.08;;
41219;SDS011;26951;47.338;9.196;2024-02-16T09:59:23;1.58;;;1.13;;
41219;SDS011;26951;47.338;9.196;2024-02-16T10:02:07;1.10;;;1.00;;
41219;SDS011;26951;47.338;9.196;2024-02-16T10:04:52;1.40;;;1.13;;
41219;SDS011;26951;47.338;9.196;2024-02-16T10:07:38;1.80;;;1.30;;
41219;SDS011;26951;47.338;9.196;2024-02-16T10:10:22;1.40;;;1.17;;
41219;SDS011;26951;47.338;9.196;2024-02-16T10:13:08;1.70;;;1.30;;
41219;SDS011;26951;47.338;9.196;2024-02-16T10:16:04;1.85;;;1.35;;
41219;SDS011;26951;47.338;9.196;2024-02-16T10:18:54;2.65;;;1.10;;
41219;SDS011;26951;47.338;9.196;2024-02-16T10:21:41;3.95;;;1.55;;
41219;SDS011;26951;47.338;9.196;2024-02-16T10:24:25;3.63;;;1.70;;
41219;SDS011;26951;47.338;9.196;2024-02-16T10:27:15;4.93;;;1.45;;
41219;SDS011;26951;47.338;9.196;2024-02-16T10:30:00;2.03;;;1.50;;
41219;SDS011;26951;47.338;9.196;2024-02-16T10:32:45;2.65;;;1.65;;
41219;SDS011;26951;47.338;9.196;2024-02-16T10:35:30;1.67;;;1.10;;
41219;SDS011;26951;47.338;9.196;2024-02-16T10:38:14;2.53;;;1.50;;
41219;SDS011;26951;47.338;9.196;2024-02-16T10:40:59;1.47;;;1.20;;
41219;SDS011;26951;47.338;9.196;2024-02-16T10:43:46;1.70;;;1.10;;
41219;SDS011;26951;47.338;9.196;2024-02-16T10:46:32;3.70;;;1.42;;
41219;SDS011;26951;47.338;9.196;2024-02-16T10:49:19;7.30;;;1.40;;
41219;SDS011;26951;47.338;9.196;2024-02-16T10:52:04;2.05;;;0.90;;
41219;SDS011;26951;47.338;9.196;2024-02-16T10:54:50;1.88;;;1.40;;
41219;SDS011;26951;47.338;9.196;2024-02-16T10:57:38;2.10;;;1.27;;
41219;SDS011;26951;47.338;9.196;2024-02-16T11:00:24;2.30;;;1.80;;
41219;SDS011;26951;47.338;9.196;2024-02-16T11:03:08;4.80;;;1.40;;
41219;SDS011;26951;47.338;9.196;2024-02-16T11:05:52;5.70;;;1.45;;
41219;SDS011;26951;47.338;9.196;2024-02-16T11:08:37;4.65;;;1.88;;
41219;SDS011;26951;47.338;9.196;2024-02-16T11:11:25;3.27;;;2.00;;
41219;SDS011;26951;47.338;9.196;2024-02-16T11:14:15;1.58;;;1.40;;
41219;SDS011;26951;47.338;9.196;2024-02-16T11:17:00;5.75;;;1.50;;
41219;SDS011;26951;47.338;9.196;2024-02-16T11:19:45;2.40;;;1.52;;
41219;SDS011;26951;47.338;9.196;2024-02-16T11:25:14;4.75;;;1.90;;
41219;SDS011;26951;47.338;9.196;2024-02-16T11:27:59;3.63;;;1.60;;
41219;SDS011;26951;47.338;9.196;2024-02-16T11:30:43;1.87;;;1.33;;
41219;SDS011;26951;47.338;9.196;2024-02-16T11:33:28;2.77;;;1.70;;
41219;SDS011;26951;47.338;9.196;2024-02-16T11:36:13;3.75;;;1.60;;
41219;SDS011;26951;47.338;9.196;2024-02-16T11:38:57;4.38;;;1.98;;
41219;SDS011;26951;47.338;9.196;2024-02-16T11:41:42;3.17;;;1.60;;
41219;SDS011;26951;47.338;9.196;2024-02-16T11:44:26;5.32;;;1.77;;
41219;SDS011;26951;47.338;9.196;2024-02-16T11:47:11;3.45;;;1.45;;
41219;SDS011;26951;47.338;9.196;2024-02-16T11:50:04;4.50;;;2.03;;
41219;SDS011;26951;47.338;9.196;2024-02-16T11:52:49;5.57;;;1.90;;
41219;SDS011;26951;47.338;9.196;2024-02-16T11:55:33;3.25;;;1.50;;
41219;SDS011;26951;47.338;9.196;2024-02-16T12:01:03;3.63;;;1.70;;
41219;SDS011;26951;47.338;9.196;2024-02-16T12:03:54;2.78;;;1.50;;
41219;SDS011;26951;47.338;9.196;2024-02-16T12:06:38;2.63;;;1.65;;
41219;SDS011;26951;47.338;9.196;2024-02-16T12:09:23;3.17;;;2.03;;
41219;SDS011;26951;47.338;9.196;2024-02-16T12:12:08;3.13;;;1.80;;
41219;SDS011;26951;47.338;9.196;2024-02-16T12:14:52;3.35;;;1.50;;
41219;SDS011;26951;47.338;9.196;2024-02-16T12:17:38;12.32;;;3.00;;
41219;SDS011;26951;47.338;9.196;2024-02-16T12:20:23;5.00;;;1.55;;
41219;SDS011;26951;47.338;9.196;2024-02-16T12:23:10;14.75;;;1.95;;
41219;SDS011;26951;47.338;9.196;2024-02-16T12:25:55;2.42;;;1.42;;
41219;SDS011;26951;47.338;9.196;2024-02-16T12:28:40;4.60;;;1.50;;
41219;SDS011;26951;47.338;9.196;2024-02-16T12:31:26;3.75;;;1.65;;
41219;SDS011;26951;47.338;9.196;2024-02-16T12:34:10;3.72;;;1.50;;
41219;SDS011;26951;47.338;9.196;2024-02-16T12:36:55;4.95;;;2.22;;
41219;SDS011;26951;47.338;9.196;2024-02-16T12:39:39;4.90;;;2.35;;
41219;SDS011;26951;47.338;9.196;2024-02-16T12:42:23;6.88;;;2.15;;
41219;SDS011;26951;47.338;9.196;2024-02-16T12:45:08;4.93;;;1.83;;
41219;SDS011;26951;47.338;9.196;2024-02-16T12:47:52;3.55;;;1.58;;
41219;SDS011;26951;47.338;9.196;2024-02-16T12:50:36;5.17;;;1.57;;
41219;SDS011;26951;47.338;9.196;2024-02-16T12:53:22;4.13;;;1.80;;
41219;SDS011;26951;47.338;9.196;2024-02-16T12:58:53;3.22;;;1.52;;
41219;SDS011;26951;47.338;9.196;2024-02-16T15:56:53;5.43;;;2.85;;
41219;SDS011;26951;47.338;9.196;2024-02-16T15:59:37;7.90;;;2.85;;
41219;SDS011;26951;47.338;9.196;2024-02-16T16:02:21;7.18;;;3.13;;
41219;SDS011;26951;47.338;9.196;2024-02-16T16:05:05;10.05;;;3.45;;
41219;SDS011;26951;47.338;9.196;2024-02-16T16:07:50;5.38;;;2.50;;
41219;SDS011;26951;47.338;9.196;2024-02-16T16:10:35;5.88;;;2.95;;
41219;SDS011;26951;47.338;9.196;2024-02-16T16:13:19;8.98;;;2.88;;
41219;SDS011;26951;47.338;9.196;2024-02-16T16:16:04;6.00;;;2.53;;
41219;SDS011;26951;47.338;9.196;2024-02-16T16:18:48;7.28;;;2.85;;
41219;SDS011;26951;47.338;9.196;2024-02-16T16:24:18;4.97;;;3.03;;
41219;SDS011;26951;47.338;9.196;2024-02-16T16:27:03;7.13;;;2.90;;
41219;SDS011;26951;47.338;9.196;2024-02-16T16:29:47;5.40;;;2.70;;
41219;SDS011;26951;47.338;9.196;2024-02-16T16:32:31;6.93;;;2.83;;
41219;SDS011;26951;47.338;9.196;2024-02-16T16:35:15;6.28;;;3.05;;
41219;SDS011;26951;47.338;9.196;2024-02-16T16:38:00;5.55;;;2.60;;
41219;SDS011;26951;47.338;9.196;2024-02-16T16:40:44;5.95;;;2.88;;
41219;SDS011;26951;47.338;9.196;2024-02-16T16:43:28;4.20;;;2.78;;
41219;SDS011;26951;47.338;9.196;2024-02-16T16:46:12;9.85;;;3.63;;
41219;SDS011;26951;47.338;9.196;2024-02-16T16:48:56;4.80;;;2.88;;
41219;SDS011;26951;47.338;9.196;2024-02-16T16:51:40;7.30;;;2.45;;
41219;SDS011;26951;47.338;9.196;2024-02-16T16:54:24;3.53;;;2.60;;
41219;SDS011;26951;47.338;9.196;2024-02-16T16:57:08;5.93;;;3.60;;
41219;SDS011;26951;47.338;9.196;2024-02-16T16:59:52;3.50;;;2.28;;
41219;SDS011;26951;47.338;9.196;2024-02-16T17:02:36;5.22;;;2.90;;
41219;SDS011;26951;47.338;9.196;2024-02-16T17:05:20;3.97;;;2.78;;
41219;SDS011;26951;47.338;9.196;2024-02-16T17:08:05;4.70;;;2.60;;
41219;SDS011;26951;47.338;9.196;2024-02-16T17:10:49;5.57;;;2.97;;
41219;SDS011;26951;47.338;9.196;2024-02-16T17:13:33;6.63;;;3.45;;
41219;SDS011;26951;47.338;9.196;2024-02-16T17:16:17;5.95;;;2.88;;
41219;SDS011;26951;47.338;9.196;2024-02-16T17:19:01;5.35;;;3.28;;
41219;SDS011;26951;47.338;9.196;2024-02-16T17:21:47;8.70;;;3.08;;
41219;SDS011;26951;47.338;9.196;2024-02-16T17:24:31;4.65;;;3.42;;
41219;SDS011;26951;47.338;9.196;2024-02-16T17:27:15;7.82;;;3.83;;
41219;SDS011;26951;47.338;9.196;2024-02-16T17:30:01;8.77;;;4.23;;
41219;SDS011;26951;47.338;9.196;2024-02-16T17:32:47;7.85;;;4.50;;
41219;SDS011;26951;47.338;9.196;2024-02-16T17:38:16;5.93;;;3.63;;
41219;SDS011;26951;47.338;9.196;2024-02-16T17:41:00;6.10;;;3.67;;
41219;SDS011;26951;47.338;9.196;2024-02-16T17:46:30;9.02;;;4.22;;
41219;SDS011;26951;47.338;9.196;2024-02-16T17:49:14;8.25;;;5.03;;
41219;SDS011;26951;47.338;9.196;2024-02-16T17:51:59;5.63;;;4.18;;
41219;SDS011;26951;47.338;9.196;2024-02-16T17:54:43;7.03;;;4.13;;
41219;SDS011;26951;47.338;9.196;2024-02-16T17:57:27;5.20;;;3.72;;
41219;SDS011;26951;47.338;9.196;2024-02-16T18:00:11;4.70;;;3.65;;
41219;SDS011;26951;47.338;9.196;2024-02-16T18:02:56;6.50;;;5.40;;
41219;SDS011;26951;47.338;9.196;2024-02-16T18:05:41;6.20;;;3.65;;
41219;SDS011;26951;47.338;9.196;2024-02-16T18:08:25;10.55;;;4.75;;
41219;SDS011;26951;47.338;9.196;2024-02-16T18:11:09;10.07;;;5.05;;
41219;SDS011;26951;47.338;9.196;2024-02-16T18:13:53;9.23;;;5.18;;
41219;SDS011;26951;47.338;9.196;2024-02-16T18:16:38;8.63;;;5.03;;
41219;SDS011;26951;47.338;9.196;2024-02-16T18:19:22;6.50;;;5.10;;
41219;SDS011;26951;47.338;9.196;2024-02-16T18:22:06;6.15;;;4.15;;
41219;SDS011;26951;47.338;9.196;2024-02-16T18:24:51;6.43;;;4.22;;
41219;SDS011;26951;47.338;9.196;2024-02-16T18:27:35;7.13;;;4.57;;
41219;SDS011;26951;47.338;9.196;2024-02-16T18:30:20;6.47;;;4.22;;
41219;SDS011;26951;47.338;9.196;2024-02-16T18:33:04;4.25;;;3.30;;
41219;SDS011;26951;47.338;9.196;2024-02-16T18:35:49;7.72;;;4.82;;
41219;SDS011;26951;47.338;9.196;2024-02-16T18:38:33;4.95;;;3.75;;
41219;SDS011;26951;47.338;9.196;2024-02-16T18:41:19;5.45;;;4.10;;
41219;SDS011;26951;47.338;9.196;2024-02-16T18:44:03;4.57;;;3.83;;
41219;SDS011;26951;47.338;9.196;2024-02-16T18:46:47;5.57;;;3.47;;
41219;SDS011;26951;47.338;9.196;2024-02-16T18:49:31;5.20;;;3.90;;
41219;SDS011;26951;47.338;9.196;2024-02-16T18:52:15;5.03;;;2.92;;
41219;SDS011;26951;47.338;9.196;2024-02-16T18:55:00;4.47;;;3.65;;
41219;SDS011;26951;47.338;9.196;2024-02-16T18:57:44;5.78;;;4.32;;
41219;SDS011;26951;47.338;9.196;2024-02-16T19:00:29;5.85;;;3.67;;
41219;SDS011;26951;47.338;9.196;2024-02-16T19:03:14;4.63;;;3.33;;
41219;SDS011;26951;47.338;9.196;2024-02-16T19:05:58;6.45;;;3.63;;
41219;SDS011;26951;47.338;9.196;2024-02-16T19:08:44;4.10;;;3.30;;
41219;SDS011;26951;47.338;9.196;2024-02-16T19:11:29;4.47;;;3.60;;
41219;SDS011;26951;47.338;9.196;2024-02-16T19:14:14;3.85;;;2.83;;
41219;SDS011;26951;47.338;9.196;2024-02-16T19:16:58;5.15;;;3.20;;
41219;SDS011;26951;47.338;9.196;2024-02-16T19:19:42;6.32;;;3.75;;
41219;SDS011;26951;47.338;9.196;2024-02-16T19:22:26;5.45;;;3.33;;
41219;SDS011;26951;47.338;9.196;2024-02-16T19:25:10;4.90;;;3.15;;
41219;SDS011;26951;47.338;9.196;2024-02-16T19:27:54;4.53;;;3.30;;
41219;SDS011;26951;47.338;9.196;2024-02-16T19:30:38;6.47;;;3.58;;
41219;SDS011;26951;47.338;9.196;2024-02-16T19:33:22;5.07;;;3.30;;
41219;SDS011;26951;47.338;9.196;2024-02-16T19:36:06;5.10;;;3.08;;
41219;SDS011;26951;47.338;9.196;2024-02-16T19:38:52;3.75;;;2.97;;
41219;SDS011;26951;47.338;9.196;2024-02-16T19:41:36;8.50;;;3.42;;
41219;SDS011;26951;47.338;9.196;2024-02-16T19:44:28;4.97;;;3.63;;
41219;SDS011;26951;47.338;9.196;2024-02-16T19:47:16;4.13;;;3.42;;
41219;SDS011;26951;47.338;9.196;2024-02-16T19:50:01;5.03;;;3.47;;
41219;SDS011;26951;47.338;9.196;2024-02-16T19:52:45;5.03;;;3.83;;